Eizo Maru — JD2944 — position and weather

sailwx.info

Track history (hours):
 
Tides and Currents Weather Stations Pressure Air Temp Water Temp Dewpoint Dewpoint Depression Visibility Wind Speed Wind Dir Waves Ship Positions

Eizo Maru

Last reported at 2014-Sep-20 07:06 UTC. Time now 2014-Sep-21 02:06 UTC.
Position N 34°07' E 135°04'.

Length 80 m; draft 5.4 m.

Type: Tanker. MMSI: 431000976.

Date/timePositionNaut miles runAvg speedWind from/ knotsBaromVisibWave heightAir tempDewpointWater temp
2014-Sep-20 07:06N 34°07' E 135°04'3 0.6
2014-Sep-20 01:30N 34°07' E 135°08'4 3.9
2014-Sep-20 00:33N 34°06' E 135°03'3 0.1
2014-Sep-18 04:27N 34°07' E 135°07'0 0.1
2014-Sep-17 23:26N 34°08' E 135°07'2 1.8
2014-Sep-17 22:28N 34°09' E 135°08'0 0.1
2014-Sep-17 21:28N 34°09' E 135°07'4 1.8
2014-Sep-17 19:29N 34°13' E 135°09'0 0.0
2014-Sep-17 18:17N 34°13' E 135°09'0 0.0
2014-Sep-17 09:23N 34°13' E 135°09'0 0.1
2014-Sep-17 05:33N 34°13' E 135°08'4 3.7
2014-Sep-17 04:33N 34°09' E 135°08'0 0.0
2014-Sep-17 03:27N 34°09' E 135°08'0 0.1
2014-Sep-17 02:30N 34°09' E 135°08'0 0.0
2014-Sep-17 01:30N 34°09' E 135°08'0 0.0
2014-Sep-17 00:33N 34°09' E 135°08'0 0.0
2014-Sep-16 23:30N 34°09' E 135°08'0 0.1
2014-Sep-16 22:33N 34°09' E 135°08'0 0.0
2014-Sep-16 21:33N 34°09' E 135°08'1 1.0
2014-Sep-16 20:33N 34°09' E 135°06'  
2014-Sep-11 06:07N 34°06' E 135°03'4 0.5
2014-Sep-10 23:21N 34°07' E 135°08'0 0.1
2014-Sep-10 22:12N 34°07' E 135°08'0 0.0
2014-Sep-10 21:09N 34°07' E 135°08'0 0.0
2014-Sep-10 19:30N 34°07' E 135°08'0 0.0
2014-Sep-10 15:23N 34°07' E 135°08'  
Track history (hours):
 
Tides and Currents Weather Stations Pressure Air Temp Water Temp Dewpoint Dewpoint Depression Visibility Wind Speed Wind Dir Waves Ship Positions

Eizo Maru

Last reported at 2014-Sep-20 07:06 UTC. Time now 2014-Sep-21 02:06 UTC.
Position N 34°07' E 135°04'.

Length 80 m; draft 5.4 m.

Type: Tanker. MMSI: 431000976.

Date/timePositionNaut miles runAvg speedWind from/ knotsBaromVisibWave heightAir tempDewpointWater temp
2014-Sep-20 07:06N 34°07' E 135°04'3 0.6
2014-Sep-20 01:30N 34°07' E 135°08'4 3.9
2014-Sep-20 00:33N 34°06' E 135°03'3 0.1
2014-Sep-18 04:27N 34°07' E 135°07'0 0.1
2014-Sep-17 23:26N 34°08' E 135°07'2 1.8
2014-Sep-17 22:28N 34°09' E 135°08'0 0.1
2014-Sep-17 21:28N 34°09' E 135°07'4 1.8
2014-Sep-17 19:29N 34°13' E 135°09'0 0.0
2014-Sep-17 18:17N 34°13' E 135°09'0 0.0
2014-Sep-17 09:23N 34°13' E 135°09'0 0.1
2014-Sep-17 05:33N 34°13' E 135°08'4 3.7
2014-Sep-17 04:33N 34°09' E 135°08'0 0.0
2014-Sep-17 03:27N 34°09' E 135°08'0 0.1
2014-Sep-17 02:30N 34°09' E 135°08'0 0.0
2014-Sep-17 01:30N 34°09' E 135°08'0 0.0
2014-Sep-17 00:33N 34°09' E 135°08'0 0.0
2014-Sep-16 23:30N 34°09' E 135°08'0 0.1
2014-Sep-16 22:33N 34°09' E 135°08'0 0.0
2014-Sep-16 21:33N 34°09' E 135°08'1 1.0
2014-Sep-16 20:33N 34°09' E 135°06'  
2014-Sep-11 06:07N 34°06' E 135°03'4 0.5
2014-Sep-10 23:21N 34°07' E 135°08'0 0.1
2014-Sep-10 22:12N 34°07' E 135°08'0 0.0
2014-Sep-10 21:09N 34°07' E 135°08'0 0.0
2014-Sep-10 19:30N 34°07' E 135°08'0 0.0
2014-Sep-10 15:23N 34°07' E 135°08'  

Dump ship's entire track history